Terminal Aerodrome Forecast
Issued by NWS

Home | Current Version | Previous Version | Text Only | Print | Product List | Glossary On
Versions: 1 2 3 4 5 6 7 8 9 10 11 12 13
000
FTUS45 KRIW 240537
TAFBPI
TAF
KBPI 240537Z 2406/2506 25008KT 4SM -SHSN SCT015 BKN025
     FM241600 30008KT P6SM VCSH BKN035
     FM242100 28011KT P6SM SCT035
     FM250300 33007KT P6SM SCT070=

USA.gov is the U.S. government's official web portal to all federal, state and local government web resources and services.